sensor_id;sensor_type;location;lat;lon;timestamp;pressure;altitude;pressure_sealevel;temperature;humidity
48210;BME280;33999;52.252;9.616;2022-07-29T00:02:14;100852.25;;;15.22;57.89
48210;BME280;33999;52.252;9.616;2022-07-29T00:05:16;100851.22;;;15.23;57.78
48210;BME280;33999;52.252;9.616;2022-07-29T00:08:18;100853.94;;;15.23;58.54
48210;BME280;33999;52.252;9.616;2022-07-29T00:11:20;100837.84;;;15.22;58.56
48210;BME280;33999;52.252;9.616;2022-07-29T00:14:21;100848.69;;;15.22;59.04
48210;BME280;33999;52.252;9.616;2022-07-29T00:17:24;100838.84;;;15.21;58.80
48210;BME280;33999;52.252;9.616;2022-07-29T00:20:26;100835.28;;;15.20;58.69
48210;BME280;33999;52.252;9.616;2022-07-29T00:23:27;100836.28;;;15.19;58.99
48210;BME280;33999;52.252;9.616;2022-07-29T00:26:31;100831.72;;;15.20;58.80
48210;BME280;33999;52.252;9.616;2022-07-29T00:29:33;100826.31;;;15.20;58.95
48210;BME280;33999;52.252;9.616;2022-07-29T00:32:36;100830.72;;;15.21;59.13
48210;BME280;33999;52.252;9.616;2022-07-29T00:35:37;100820.19;;;15.18;59.31
48210;BME280;33999;52.252;9.616;2022-07-29T00:38:45;100808.63;;;15.16;59.31
48210;BME280;33999;52.252;9.616;2022-07-29T00:41:47;100815.91;;;15.15;59.71
48210;BME280;33999;52.252;9.616;2022-07-29T00:44:49;100818.88;;;15.12;59.79
48210;BME280;33999;52.252;9.616;2022-07-29T00:47:50;100810.78;;;15.12;59.47
48210;BME280;33999;52.252;9.616;2022-07-29T00:50:52;100819.63;;;15.14;59.96
48210;BME280;33999;52.252;9.616;2022-07-29T00:53:54;100809.06;;;15.11;59.88
48210;BME280;33999;52.252;9.616;2022-07-29T00:56:59;100803.78;;;15.10;59.69
48210;BME280;33999;52.252;9.616;2022-07-29T01:00:03;100802.09;;;15.09;59.90
48210;BME280;33999;52.252;9.616;2022-07-29T01:03:05;100798.34;;;15.00;59.82
48210;BME280;33999;52.252;9.616;2022-07-29T01:06:06;100789.81;;;14.95;59.88
48210;BME280;33999;52.252;9.616;2022-07-29T01:09:11;100789.38;;;14.90;60.33
48210;BME280;33999;52.252;9.616;2022-07-29T01:12:17;100790.50;;;14.87;60.28
48210;BME280;33999;52.252;9.616;2022-07-29T01:15:20;100790.91;;;14.83;60.65
48210;BME280;33999;52.252;9.616;2022-07-29T01:18:28;100795.88;;;14.77;61.02
48210;BME280;33999;52.252;9.616;2022-07-29T01:21:51;100777.22;;;14.74;61.05
48210;BME280;33999;52.252;9.616;2022-07-29T01:31:06;100781.56;;;14.56;61.29
48210;BME280;33999;52.252;9.616;2022-07-29T01:41:09;100772.81;;;14.43;61.79
48210;BME280;33999;52.252;9.616;2022-07-29T01:44:18;100767.94;;;14.36;61.87
48210;BME280;33999;52.252;9.616;2022-07-29T01:47:25;100772.66;;;14.34;62.16
48210;BME280;33999;52.252;9.616;2022-07-29T01:50:34;100772.91;;;14.31;62.47
48210;BME280;33999;52.252;9.616;2022-07-29T01:53:47;100764.34;;;14.26;62.81
48210;BME280;33999;52.252;9.616;2022-07-29T01:56:53;100770.75;;;14.25;62.95
48210;BME280;33999;52.252;9.616;2022-07-29T01:59:58;100758.75;;;14.18;62.78
48210;BME280;33999;52.252;9.616;2022-07-29T02:03:07;100761.72;;;14.15;62.90
48210;BME280;33999;52.252;9.616;2022-07-29T02:06:11;100753.06;;;14.11;62.73
48210;BME280;33999;52.252;9.616;2022-07-29T02:09:14;100755.31;;;14.06;62.99
48210;BME280;33999;52.252;9.616;2022-07-29T02:12:18;100754.56;;;14.04;62.80
48210;BME280;33999;52.252;9.616;2022-07-29T02:15:23;100753.97;;;14.01;63.12
48210;BME280;33999;52.252;9.616;2022-07-29T02:18:27;100754.25;;;13.98;63.24
48210;BME280;33999;52.252;9.616;2022-07-29T02:21:32;100752.94;;;13.92;63.71
48210;BME280;33999;52.252;9.616;2022-07-29T02:24:36;100750.50;;;13.89;63.78
48210;BME280;33999;52.252;9.616;2022-07-29T02:27:39;100753.47;;;13.86;63.54
48210;BME280;33999;52.252;9.616;2022-07-29T02:30:42;100746.34;;;13.85;64.13
48210;BME280;33999;52.252;9.616;2022-07-29T02:33:45;100746.50;;;13.83;64.04
48210;BME280;33999;52.252;9.616;2022-07-29T02:36:49;100743.06;;;13.81;64.18
48210;BME280;33999;52.252;9.616;2022-07-29T02:39:53;100742.91;;;13.83;64.17
48210;BME280;33999;52.252;9.616;2022-07-29T02:42:56;100741.22;;;13.82;64.63
48210;BME280;33999;52.252;9.616;2022-07-29T02:45:58;100739.53;;;13.81;64.78
48210;BME280;33999;52.252;9.616;2022-07-29T02:52:45;100739.38;;;13.82;64.73
48210;BME280;33999;52.252;9.616;2022-07-29T02:55:55;100729.41;;;13.83;64.95
48210;BME280;33999;52.252;9.616;2022-07-29T02:58:59;100726.59;;;13.84;65.06
48210;BME280;33999;52.252;9.616;2022-07-29T03:02:04;100734.69;;;13.84;65.00
48210;BME280;33999;52.252;9.616;2022-07-29T03:05:09;100721.19;;;13.84;65.07
48210;BME280;33999;52.252;9.616;2022-07-29T03:08:14;100723.63;;;13.87;65.03
48210;BME280;33999;52.252;9.616;2022-07-29T03:11:16;100719.06;;;13.88;65.35
48210;BME280;33999;52.252;9.616;2022-07-29T03:14:19;100727.06;;;13.89;65.64
48210;BME280;33999;52.252;9.616;2022-07-29T03:17:24;100719.50;;;13.83;65.57
48210;BME280;33999;52.252;9.616;2022-07-29T03:20:26;100721.31;;;13.83;65.74
48210;BME280;33999;52.252;9.616;2022-07-29T03:23:27;100717.91;;;13.81;65.75
48210;BME280;33999;52.252;9.616;2022-07-29T03:26:37;100714.34;;;13.80;65.97
48210;BME280;33999;52.252;9.616;2022-07-29T03:29:39;100713.75;;;13.77;66.33
48210;BME280;33999;52.252;9.616;2022-07-29T03:32:45;100720.88;;;13.78;66.01
48210;BME280;33999;52.252;9.616;2022-07-29T03:35:46;100721.88;;;13.77;66.16
48210;BME280;33999;52.252;9.616;2022-07-29T03:38:48;100717.31;;;13.77;66.20
48210;BME280;33999;52.252;9.616;2022-07-29T03:41:53;100714.03;;;13.74;66.11
48210;BME280;33999;52.252;9.616;2022-07-29T03:44:57;100715.72;;;13.75;65.84
48210;BME280;33999;52.252;9.616;2022-07-29T03:48:06;100717.59;;;13.74;66.09
48210;BME280;33999;52.252;9.616;2022-07-29T03:51:08;100721.13;;;13.75;66.50
48210;BME280;33999;52.252;9.616;2022-07-29T03:54:10;100711.19;;;13.75;66.60
48210;BME280;33999;52.252;9.616;2022-07-29T03:57:14;100720.00;;;13.77;66.55
48210;BME280;33999;52.252;9.616;2022-07-29T04:00:17;100725.13;;;13.80;66.65
48210;BME280;33999;52.252;9.616;2022-07-29T04:03:21;100724.16;;;13.81;66.62
48210;BME280;33999;52.252;9.616;2022-07-29T04:06:24;100727.59;;;13.83;66.83
48210;BME280;33999;52.252;9.616;2022-07-29T04:09:27;100734.81;;;13.83;66.65
48210;BME280;33999;52.252;9.616;2022-07-29T04:12:29;100728.56;;;13.82;66.84
48210;BME280;33999;52.252;9.616;2022-07-29T04:15:32;100729.28;;;13.84;67.04
48210;BME280;33999;52.252;9.616;2022-07-29T04:18:34;100725.75;;;13.84;67.20
48210;BME280;33999;52.252;9.616;2022-07-29T04:21:41;100727.16;;;13.88;66.96
48210;BME280;33999;52.252;9.616;2022-07-29T04:24:42;100736.84;;;13.90;67.05
48210;BME280;33999;52.252;9.616;2022-07-29T04:27:45;100729.75;;;13.89;66.70
48210;BME280;33999;52.252;9.616;2022-07-29T04:31:01;100727.91;;;13.90;66.63
48210;BME280;33999;52.252;9.616;2022-07-29T04:34:03;100732.44;;;13.89;66.67
48210;BME280;33999;52.252;9.616;2022-07-29T04:37:05;100734.03;;;13.92;66.82
48210;BME280;33999;52.252;9.616;2022-07-29T04:40:07;100739.16;;;13.95;66.73
48210;BME280;33999;52.252;9.616;2022-07-29T04:43:08;100730.22;;;13.95;66.94
48210;BME280;33999;52.252;9.616;2022-07-29T04:46:12;100735.34;;;13.98;66.81
48210;BME280;33999;52.252;9.616;2022-07-29T04:49:14;100733.38;;;14.00;66.80
48210;BME280;33999;52.252;9.616;2022-07-29T04:52:16;100733.25;;;14.01;66.67
48210;BME280;33999;52.252;9.616;2022-07-29T04:55:17;100731.50;;;14.00;66.90
48210;BME280;33999;52.252;9.616;2022-07-29T04:58:20;100737.38;;;14.05;67.05
48210;BME280;33999;52.252;9.616;2022-07-29T05:01:24;100742.25;;;14.11;67.01
48210;BME280;33999;52.252;9.616;2022-07-29T05:04:29;100740.84;;;14.17;66.79
48210;BME280;33999;52.252;9.616;2022-07-29T05:07:30;100740.44;;;14.22;67.10
48210;BME280;33999;52.252;9.616;2022-07-29T05:10:32;100734.38;;;14.29;67.14
48210;BME280;33999;52.252;9.616;2022-07-29T05:13:35;100737.25;;;14.38;67.66
48210;BME280;33999;52.252;9.616;2022-07-29T05:16:46;100738.41;;;14.45;67.15
48210;BME280;33999;52.252;9.616;2022-07-29T05:19:48;100726.91;;;14.52;66.89
48210;BME280;33999;52.252;9.616;2022-07-29T05:22:51;100730.94;;;14.58;66.84
48210;BME280;33999;52.252;9.616;2022-07-29T05:25:53;100734.94;;;14.64;67.18
48210;BME280;33999;52.252;9.616;2022-07-29T05:28:55;100737.34;;;14.67;66.72
48210;BME280;33999;52.252;9.616;2022-07-29T05:31:58;100725.69;;;14.66;65.50
48210;BME280;33999;52.252;9.616;2022-07-29T05:35:00;100721.72;;;14.70;65.78
48210;BME280;33999;52.252;9.616;2022-07-29T05:38:03;100719.47;;;14.75;65.80
48210;BME280;33999;52.252;9.616;2022-07-29T05:41:05;100726.16;;;14.81;65.08
48210;BME280;33999;52.252;9.616;2022-07-29T05:44:07;100726.59;;;14.86;64.96
48210;BME280;33999;52.252;9.616;2022-07-29T05:47:08;100720.78;;;14.91;65.18
48210;BME280;33999;52.252;9.616;2022-07-29T05:50:10;100731.16;;;14.95;64.36
48210;BME280;33999;52.252;9.616;2022-07-29T05:53:12;100724.34;;;15.01;64.14
48210;BME280;33999;52.252;9.616;2022-07-29T05:56:20;100725.34;;;15.10;64.00
48210;BME280;33999;52.252;9.616;2022-07-29T05:59:22;100723.19;;;15.33;63.05
48210;BME280;33999;52.252;9.616;2022-07-29T06:02:30;100727.59;;;15.53;61.77
48210;BME280;33999;52.252;9.616;2022-07-29T06:05:32;100726.78;;;16.09;59.93
48210;BME280;33999;52.252;9.616;2022-07-29T06:08:34;100729.63;;;16.83;57.92
48210;BME280;33999;52.252;9.616;2022-07-29T06:11:35;100722.81;;;17.32;56.03
48210;BME280;33999;52.252;9.616;2022-07-29T06:14:37;100729.06;;;17.51;55.86
48210;BME280;33999;52.252;9.616;2022-07-29T06:17:39;100720.63;;;17.54;56.00
48210;BME280;33999;52.252;9.616;2022-07-29T06:21:01;100717.38;;;17.50;56.22
48210;BME280;33999;52.252;9.616;2022-07-29T06:24:03;100714.19;;;17.55;56.04
48210;BME280;33999;52.252;9.616;2022-07-29T06:27:04;100718.88;;;17.71;54.49
48210;BME280;33999;52.252;9.616;2022-07-29T06:30:06;100711.81;;;17.78;55.00
48210;BME280;33999;52.252;9.616;2022-07-29T06:33:16;100710.97;;;17.77;55.08
48210;BME280;33999;52.252;9.616;2022-07-29T06:36:18;100715.47;;;17.69;55.02
48210;BME280;33999;52.252;9.616;2022-07-29T06:39:26;100715.41;;;17.60;55.94
48210;BME280;33999;52.252;9.616;2022-07-29T06:42:27;100716.13;;;17.45;56.71
48210;BME280;33999;52.252;9.616;2022-07-29T06:45:30;100725.91;;;17.20;55.44
48210;BME280;33999;52.252;9.616;2022-07-29T06:48:33;100726.94;;;17.01;56.21
48210;BME280;33999;52.252;9.616;2022-07-29T06:51:35;100728.00;;;16.90;56.84
48210;BME280;33999;52.252;9.616;2022-07-29T06:54:37;100728.47;;;16.85;57.58
48210;BME280;33999;52.252;9.616;2022-07-29T06:57:40;100736.81;;;16.92;56.55
48210;BME280;33999;52.252;9.616;2022-07-29T07:00:42;100737.22;;;16.97;56.20
48210;BME280;33999;52.252;9.616;2022-07-29T07:03:44;100731.50;;;17.00;56.00
48210;BME280;33999;52.252;9.616;2022-07-29T07:06:45;100725.47;;;17.06;55.90
48210;BME280;33999;52.252;9.616;2022-07-29T07:09:47;100723.59;;;17.07;55.99
48210;BME280;33999;52.252;9.616;2022-07-29T07:12:49;100717.56;;;17.13;55.92
48210;BME280;33999;52.252;9.616;2022-07-29T07:15:58;100726.63;;;17.22;56.46
48210;BME280;33999;52.252;9.616;2022-07-29T07:19:00;100725.78;;;17.21;55.25
48210;BME280;33999;52.252;9.616;2022-07-29T07:22:02;100717.56;;;17.13;55.54
48210;BME280;33999;52.252;9.616;2022-07-29T07:25:05;100713.31;;;17.10;56.00
48210;BME280;33999;52.252;9.616;2022-07-29T07:28:07;100709.03;;;17.08;56.72
48210;BME280;33999;52.252;9.616;2022-07-29T07:31:10;100722.44;;;17.09;57.51
48210;BME280;33999;52.252;9.616;2022-07-29T07:34:12;100719.88;;;17.08;57.95
48210;BME280;33999;52.252;9.616;2022-07-29T07:37:14;100738.72;;;17.09;57.53
48210;BME280;33999;52.252;9.616;2022-07-29T07:40:16;100726.31;;;17.07;57.17
48210;BME280;33999;52.252;9.616;2022-07-29T07:43:19;100728.16;;;17.06;56.17
48210;BME280;33999;52.252;9.616;2022-07-29T07:46:21;100742.59;;;17.07;56.20
48210;BME280;33999;52.252;9.616;2022-07-29T07:49:23;100736.78;;;17.02;55.97
48210;BME280;33999;52.252;9.616;2022-07-29T07:52:25;100738.78;;;17.00;56.32
48210;BME280;33999;52.252;9.616;2022-07-29T07:55:27;100733.22;;;17.01;56.83
48210;BME280;33999;52.252;9.616;2022-07-29T07:58:29;100726.75;;;17.02;56.85
48210;BME280;33999;52.252;9.616;2022-07-29T08:01:32;100722.03;;;17.04;56.74
48210;BME280;33999;52.252;9.616;2022-07-29T08:04:53;100718.88;;;17.09;56.34
48210;BME280;33999;52.252;9.616;2022-07-29T08:07:55;100721.25;;;17.12;56.57
48210;BME280;33999;52.252;9.616;2022-07-29T08:10:57;100727.41;;;17.14;56.72
48210;BME280;33999;52.252;9.616;2022-07-29T08:13:58;100722.69;;;17.16;56.98
48210;BME280;33999;52.252;9.616;2022-07-29T08:17:02;100724.22;;;17.19;56.86
48210;BME280;33999;52.252;9.616;2022-07-29T08:20:05;100723.22;;;17.20;56.99
48210;BME280;33999;52.252;9.616;2022-07-29T08:23:07;100727.16;;;17.25;57.59
48210;BME280;33999;52.252;9.616;2022-07-29T08:26:13;100714.59;;;17.24;57.51
48210;BME280;33999;52.252;9.616;2022-07-29T08:29:15;100717.19;;;17.26;57.44
48210;BME280;33999;52.252;9.616;2022-07-29T08:32:20;100723.44;;;17.26;57.10
48210;BME280;33999;52.252;9.616;2022-07-29T08:35:42;100731.59;;;17.26;56.41
48210;BME280;33999;52.252;9.616;2022-07-29T08:38:43;100732.31;;;17.28;56.45
48210;BME280;33999;52.252;9.616;2022-07-29T08:41:45;100732.97;;;17.30;57.08
48210;BME280;33999;52.252;9.616;2022-07-29T08:44:58;100732.03;;;17.39;56.64
48210;BME280;33999;52.252;9.616;2022-07-29T08:48:00;100728.69;;;17.46;56.73
48210;BME280;33999;52.252;9.616;2022-07-29T08:51:02;100734.50;;;17.51;56.95
48210;BME280;33999;52.252;9.616;2022-07-29T08:54:06;100738.31;;;17.58;57.36
48210;BME280;33999;52.252;9.616;2022-07-29T08:57:12;100734.09;;;17.64;57.16
48210;BME280;33999;52.252;9.616;2022-07-29T09:00:14;100731.09;;;17.67;56.17
48210;BME280;33999;52.252;9.616;2022-07-29T09:03:20;100721.59;;;17.71;56.79
48210;BME280;33999;52.252;9.616;2022-07-29T09:06:23;100717.88;;;17.72;55.96
48210;BME280;33999;52.252;9.616;2022-07-29T09:09:29;100719.59;;;17.73;56.00
48210;BME280;33999;52.252;9.616;2022-07-29T09:12:32;100719.44;;;17.74;56.11
48210;BME280;33999;52.252;9.616;2022-07-29T09:15:38;100708.25;;;17.77;55.79
48210;BME280;33999;52.252;9.616;2022-07-29T09:18:42;100719.66;;;17.81;56.05
48210;BME280;33999;52.252;9.616;2022-07-29T09:21:44;100710.56;;;17.90;55.87
48210;BME280;33999;52.252;9.616;2022-07-29T09:25:04;100710.94;;;17.95;55.53
48210;BME280;33999;52.252;9.616;2022-07-29T09:28:15;100716.09;;;18.07;55.92
48210;BME280;33999;52.252;9.616;2022-07-29T09:31:31;100712.91;;;18.11;55.22
48210;BME280;33999;52.252;9.616;2022-07-29T09:34:34;100714.59;;;18.12;56.10
48210;BME280;33999;52.252;9.616;2022-07-29T09:37:36;100706.66;;;18.19;56.00
48210;BME280;33999;52.252;9.616;2022-07-29T09:40:38;100704.16;;;18.25;55.50
48210;BME280;33999;52.252;9.616;2022-07-29T09:43:52;100712.50;;;18.32;55.36
48210;BME280;33999;52.252;9.616;2022-07-29T09:47:02;100713.41;;;18.41;55.02
48210;BME280;33999;52.252;9.616;2022-07-29T09:50:07;100704.09;;;18.52;55.41
48210;BME280;33999;52.252;9.616;2022-07-29T09:53:10;100710.41;;;18.68;55.79
48210;BME280;33999;52.252;9.616;2022-07-29T09:56:11;100707.09;;;18.83;56.11
48210;BME280;33999;52.252;9.616;2022-07-29T09:59:19;100701.53;;;19.01;54.45
48210;BME280;33999;52.252;9.616;2022-07-29T10:02:31;100696.56;;;19.04;52.97
48210;BME280;33999;52.252;9.616;2022-07-29T10:05:33;100704.44;;;19.16;54.09
48210;BME280;33999;52.252;9.616;2022-07-29T10:08:37;100697.31;;;19.23;53.65
48210;BME280;33999;52.252;9.616;2022-07-29T10:11:39;100699.00;;;19.24;53.68
48210;BME280;33999;52.252;9.616;2022-07-29T10:14:53;100695.78;;;19.28;54.31
48210;BME280;33999;52.252;9.616;2022-07-29T10:17:56;100697.13;;;19.32;53.91
48210;BME280;33999;52.252;9.616;2022-07-29T10:20:58;100695.44;;;19.31;53.98
48210;BME280;33999;52.252;9.616;2022-07-29T10:24:03;100694.22;;;19.34;54.31
48210;BME280;33999;52.252;9.616;2022-07-29T10:27:07;100691.00;;;19.39;54.70
48210;BME280;33999;52.252;9.616;2022-07-29T10:30:10;100688.28;;;19.39;55.05
48210;BME280;33999;52.252;9.616;2022-07-29T10:43:36;100687.06;;;19.25;54.44
48210;BME280;33999;52.252;9.616;2022-07-29T10:46:43;100682.66;;;19.24;55.86
48210;BME280;33999;52.252;9.616;2022-07-29T10:50:03;100679.25;;;19.22;54.70
48210;BME280;33999;52.252;9.616;2022-07-29T10:53:05;100685.53;;;19.22;55.74
48210;BME280;33999;52.252;9.616;2022-07-29T10:56:26;100678.41;;;19.21;54.40
48210;BME280;33999;52.252;9.616;2022-07-29T10:59:28;100676.19;;;19.17;54.80
48210;BME280;33999;52.252;9.616;2022-07-29T11:05:55;100681.97;;;19.22;55.84
48210;BME280;33999;52.252;9.616;2022-07-29T11:09:19;100678.41;;;19.21;56.54
48210;BME280;33999;52.252;9.616;2022-07-29T11:15:54;100683.69;;;19.23;57.05
48210;BME280;33999;52.252;9.616;2022-07-29T11:19:25;100684.19;;;19.26;57.41
48210;BME280;33999;52.252;9.616;2022-07-29T11:22:33;100678.41;;;19.29;57.75
48210;BME280;33999;52.252;9.616;2022-07-29T11:25:36;100682.50;;;19.33;57.88
48210;BME280;33999;52.252;9.616;2022-07-29T11:32:12;100681.28;;;19.44;58.62
48210;BME280;33999;52.252;9.616;2022-07-29T11:35:23;100686.03;;;19.50;57.55
48210;BME280;33999;52.252;9.616;2022-07-29T11:38:40;100678.38;;;19.62;56.81
48210;BME280;33999;52.252;9.616;2022-07-29T11:41:42;100661.56;;;19.67;57.08
48210;BME280;33999;52.252;9.616;2022-07-29T11:45:07;100673.09;;;19.85;56.36
48210;BME280;33999;52.252;9.616;2022-07-29T11:48:34;100671.72;;;19.97;55.49
48210;BME280;33999;52.252;9.616;2022-07-29T11:51:37;100678.81;;;20.15;56.34
48210;BME280;33999;52.252;9.616;2022-07-29T11:54:49;100669.53;;;20.32;54.56
48210;BME280;33999;52.252;9.616;2022-07-29T11:58:01;100669.28;;;20.50;53.95
48210;BME280;33999;52.252;9.616;2022-07-29T12:01:04;100672.81;;;20.67;52.98
48210;BME280;33999;52.252;9.616;2022-07-29T12:04:07;100670.78;;;20.92;53.02
48210;BME280;33999;52.252;9.616;2022-07-29T12:07:11;100669.09;;;21.14;52.41
48210;BME280;33999;52.252;9.616;2022-07-29T12:10:16;100663.34;;;21.24;52.38
48210;BME280;33999;52.252;9.616;2022-07-29T12:13:20;100660.09;;;21.28;52.72
48210;BME280;33999;52.252;9.616;2022-07-29T12:16:22;100654.44;;;21.30;50.54
48210;BME280;33999;52.252;9.616;2022-07-29T12:19:42;100648.97;;;21.30;51.72
48210;BME280;33999;52.252;9.616;2022-07-29T12:22:45;100647.09;;;21.31;53.08
48210;BME280;33999;52.252;9.616;2022-07-29T12:25:46;100647.56;;;21.34;52.48
48210;BME280;33999;52.252;9.616;2022-07-29T12:28:50;100644.84;;;21.34;52.96
48210;BME280;33999;52.252;9.616;2022-07-29T12:31:53;100650.50;;;21.33;52.55
48210;BME280;33999;52.252;9.616;2022-07-29T12:34:59;100652.56;;;21.31;53.39
48210;BME280;33999;52.252;9.616;2022-07-29T12:38:02;100647.56;;;21.34;53.90
48210;BME280;33999;52.252;9.616;2022-07-29T12:41:04;100654.75;;;21.35;54.05
48210;BME280;33999;52.252;9.616;2022-07-29T12:44:06;100650.06;;;21.44;52.97
48210;BME280;33999;52.252;9.616;2022-07-29T12:47:07;100646.31;;;21.45;53.31
48210;BME280;33999;52.252;9.616;2022-07-29T12:50:12;100645.88;;;21.56;51.84
48210;BME280;33999;52.252;9.616;2022-07-29T12:53:16;100637.78;;;21.63;52.54
48210;BME280;33999;52.252;9.616;2022-07-29T12:56:18;100632.03;;;21.73;53.11
48210;BME280;33999;52.252;9.616;2022-07-29T12:59:41;100638.84;;;21.91;51.41
48210;BME280;33999;52.252;9.616;2022-07-29T13:02:43;100630.16;;;22.03;50.18
48210;BME280;33999;52.252;9.616;2022-07-29T13:05:45;100620.53;;;22.07;51.17
48210;BME280;33999;52.252;9.616;2022-07-29T13:12:11;100615.94;;;22.22;51.88
48210;BME280;33999;52.252;9.616;2022-07-29T13:15:15;100616.19;;;22.27;51.99
48210;BME280;33999;52.252;9.616;2022-07-29T13:18:30;100609.78;;;22.35;52.07
48210;BME280;33999;52.252;9.616;2022-07-29T13:21:33;100611.53;;;22.43;51.32
48210;BME280;33999;52.252;9.616;2022-07-29T13:27:49;100604.19;;;22.65;51.81
48210;BME280;33999;52.252;9.616;2022-07-29T13:30:53;100602.50;;;22.85;51.81
48210;BME280;33999;52.252;9.616;2022-07-29T13:33:55;100590.78;;;22.91;50.19
48210;BME280;33999;52.252;9.616;2022-07-29T13:36:57;100597.69;;;22.87;49.64
48210;BME280;33999;52.252;9.616;2022-07-29T13:39:59;100580.41;;;22.87;48.64
48210;BME280;33999;52.252;9.616;2022-07-29T13:43:01;100591.81;;;22.90;48.63
48210;BME280;33999;52.252;9.616;2022-07-29T13:46:02;100578.66;;;23.00;48.76
48210;BME280;33999;52.252;9.616;2022-07-29T13:49:04;100584.97;;;23.22;50.17
48210;BME280;33999;52.252;9.616;2022-07-29T13:52:07;100571.94;;;23.53;49.34
48210;BME280;33999;52.252;9.616;2022-07-29T13:55:08;100569.16;;;23.81;47.65
48210;BME280;33999;52.252;9.616;2022-07-29T13:58:10;100567.16;;;24.03;47.25
48210;BME280;33999;52.252;9.616;2022-07-29T14:01:12;100568.94;;;24.24;47.02
48210;BME280;33999;52.252;9.616;2022-07-29T14:04:14;100564.34;;;24.38;42.66
48210;BME280;33999;52.252;9.616;2022-07-29T14:07:16;100568.22;;;24.57;39.45
48210;BME280;33999;52.252;9.616;2022-07-29T14:10:21;100562.75;;;24.77;40.07
48210;BME280;33999;52.252;9.616;2022-07-29T14:13:27;100568.47;;;24.82;38.59
48210;BME280;33999;52.252;9.616;2022-07-29T14:16:29;100563.59;;;24.70;38.42
48210;BME280;33999;52.252;9.616;2022-07-29T14:19:30;100566.34;;;24.57;38.58
48210;BME280;33999;52.252;9.616;2022-07-29T14:22:33;100559.34;;;24.48;38.33
48210;BME280;33999;52.252;9.616;2022-07-29T14:25:40;100558.00;;;24.44;38.87
48210;BME280;33999;52.252;9.616;2022-07-29T14:28:44;100560.84;;;24.64;37.88
48210;BME280;33999;52.252;9.616;2022-07-29T14:31:47;100565.75;;;24.88;36.90
48210;BME280;33999;52.252;9.616;2022-07-29T14:34:58;100560.44;;;25.00;36.69
48210;BME280;33999;52.252;9.616;2022-07-29T14:38:02;100554.97;;;25.13;38.28
48210;BME280;33999;52.252;9.616;2022-07-29T14:41:04;100549.72;;;25.19;38.01
48210;BME280;33999;52.252;9.616;2022-07-29T14:44:06;100546.94;;;25.25;38.11
48210;BME280;33999;52.252;9.616;2022-07-29T14:47:09;100547.59;;;25.34;36.63
48210;BME280;33999;52.252;9.616;2022-07-29T14:50:14;100549.69;;;25.32;36.98
48210;BME280;33999;52.252;9.616;2022-07-29T14:53:16;100550.53;;;25.39;37.10
48210;BME280;33999;52.252;9.616;2022-07-29T14:56:18;100551.34;;;25.46;36.08
48210;BME280;33999;52.252;9.616;2022-07-29T14:59:37;100540.97;;;25.62;37.07
48210;BME280;33999;52.252;9.616;2022-07-29T15:02:52;100542.63;;;25.76;36.86
48210;BME280;33999;52.252;9.616;2022-07-29T15:06:02;100537.94;;;25.83;36.06
48210;BME280;33999;52.252;9.616;2022-07-29T15:09:04;100542.22;;;25.86;37.01
48210;BME280;33999;52.252;9.616;2022-07-29T15:12:06;100529.69;;;25.83;37.15
48210;BME280;33999;52.252;9.616;2022-07-29T15:15:08;100531.41;;;25.71;35.56
48210;BME280;33999;52.252;9.616;2022-07-29T15:18:10;100530.81;;;25.62;35.91
48210;BME280;33999;52.252;9.616;2022-07-29T15:21:12;100538.44;;;25.60;34.74
48210;BME280;33999;52.252;9.616;2022-07-29T15:24:24;100532.09;;;25.53;35.01
48210;BME280;33999;52.252;9.616;2022-07-29T15:27:25;100530.22;;;25.47;34.10
48210;BME280;33999;52.252;9.616;2022-07-29T15:30:29;100523.06;;;25.39;34.89
48210;BME280;33999;52.252;9.616;2022-07-29T15:33:34;100527.47;;;25.40;33.76
48210;BME280;33999;52.252;9.616;2022-07-29T15:36:38;100520.69;;;25.49;33.57
48210;BME280;33999;52.252;9.616;2022-07-29T15:40:01;100520.22;;;25.59;33.41
48210;BME280;33999;52.252;9.616;2022-07-29T15:43:04;100512.44;;;25.49;33.51
48210;BME280;33999;52.252;9.616;2022-07-29T15:46:07;100514.38;;;25.35;33.70
48210;BME280;33999;52.252;9.616;2022-07-29T15:49:31;100513.97;;;25.25;33.09
48210;BME280;33999;52.252;9.616;2022-07-29T15:52:54;100507.81;;;25.23;32.97
48210;BME280;33999;52.252;9.616;2022-07-29T15:55:56;100512.91;;;25.20;33.64
48210;BME280;33999;52.252;9.616;2022-07-29T15:58:58;100512.03;;;25.12;33.59
48210;BME280;33999;52.252;9.616;2022-07-29T16:02:04;100514.16;;;24.97;33.33
48210;BME280;33999;52.252;9.616;2022-07-29T16:05:06;100520.06;;;24.87;34.41
48210;BME280;33999;52.252;9.616;2022-07-29T16:08:10;100504.03;;;24.84;33.57
48210;BME280;33999;52.252;9.616;2022-07-29T16:11:11;100503.16;;;24.77;34.17
48210;BME280;33999;52.252;9.616;2022-07-29T16:14:13;100501.25;;;24.64;34.37
48210;BME280;33999;52.252;9.616;2022-07-29T16:17:15;100503.56;;;24.54;34.66
48210;BME280;33999;52.252;9.616;2022-07-29T16:20:17;100499.56;;;24.50;33.54
48210;BME280;33999;52.252;9.616;2022-07-29T16:23:22;100499.50;;;24.43;34.11
48210;BME280;33999;52.252;9.616;2022-07-29T16:26:25;100495.91;;;24.36;34.05
48210;BME280;33999;52.252;9.616;2022-07-29T16:29:27;100497.16;;;24.34;33.68
48210;BME280;33999;52.252;9.616;2022-07-29T16:32:29;100497.59;;;24.30;33.42
48210;BME280;33999;52.252;9.616;2022-07-29T16:35:31;100501.59;;;24.28;33.47
48210;BME280;33999;52.252;9.616;2022-07-29T16:38:40;100497.81;;;24.29;33.28
48210;BME280;33999;52.252;9.616;2022-07-29T16:41:48;100497.59;;;24.30;33.65
48210;BME280;33999;52.252;9.616;2022-07-29T16:44:49;100497.16;;;24.27;33.75
48210;BME280;33999;52.252;9.616;2022-07-29T16:47:53;100492.94;;;24.24;34.27
48210;BME280;33999;52.252;9.616;2022-07-29T16:51:00;100498.63;;;24.16;33.99